메인 페이지
METAR-TAF:

METAR-TAF

공항 :

키슬러 공군 기지

빌럭시, 미시시피, 미국

위도: 30-25N, 경도: 088-55W, 고도: 10m

현재 날씨관측

예보는 31분 전, 00:56시(UTC)에 발표되었습니다.
4kt
온도 11°C
습도 62%
기압 1018 hPa
시정: 16.1km
맑음

METAR: KBIX 170056Z AUTO 35004KT 10SM CLR 11/04 A3007 RMK AO2 SLP186 T01130043

시각: 19:27 (01:27 UTC)

예보

예보는 7 시간 17분 전, 18:10시(UTC)에 발표되었습니다.
예보 대상 시간: 16일 18시부터 17일 24시까지 (UTC)
6kt
시정 10km 이상
맑음

TAF: KBIX 161810Z 1618/1724 35006KT 9999 SKC QNH2995INS TX17/1621Z TN04/1712Z

4,000개 이상의 공항 관측 자료 및 예보 (METAR 및 TAF 보고).

지도상에서 검색 가능한 기상관측소가 노란 점과 빨간 점으로 표시되어 있습니다.

기상관측소 명을 보려면 표시 위로 마우스를 이동하세요.

날씨 관측과 예보를 보려면 클릭하세요.

지도 변경 : 확대하려면 엑스 표시가 있는 녹색 버튼, 축소하려면 빼기 표시가 있는 녹색 버튼, 다음 페이지의 지도를 보려면 녹색 화살표를 클릭하세요.


METAR-TAF: